EmailTwitter


Observations de surface / Québec / CYUL (71627)

Régions: Québec | Canada | États-Unis | Europe | France | UK | Elsewhere
Station
Affichage
Infos & localisation pour CYUL (71627) | Aide pour décoder les METARs

Observations prises le 2017-05-25 à 10H00 UTC à MONTREAL INTL A, QB (CYUL)

Etat du ciel: couvert.

Température: 13.0 Celsius

Point de rosée: 10.0 Celsius

Humidité relative: 82%

Vents: Nord-est à 20 km/h ou 11 noeuds.

Pression au niveau moyen de la mer: 101.02 kilopascals.

Calage altimétrique: 101.02 kilopascals ou 29.83 pouces de mercure.

Visibilité horizontale: 15.00 milles terrestres ou 24.00 kilomètres.

Hauteur du plafond: 7620 mètres ( 25000 pieds ).

Observation METAR:

CYUL 251000Z 04011KT 15SM FEW170 OVC250 13/10 A2983 RMK AC2CS6 SLP102=